Toulon, Nevada
Current Conditions -  °F | °C
As of 3:53 AM on Wednesday 26 Nov 2014 (Local Time) from KLOL Reporting Station
Clear Clear  
Wind Chill: 20°   Ceiling: Unl
Heat Index: 20°   Visibility: 10mi
Dew Point: 10°   Wind: 3mph
Humidity: 65%   Direction: 210°SSW
Pressure: 30.42"   Gusts: NA
Location:  40.3545°N, 118.628°W
Report Text: KLOL 261153Z AUTO 21003KT 10SM CLR M07/M12 A3042 RMK AO2 SLP315 T10671122 11011 21078 58001
Loading
Personal Weather Stations






























Interactive Weather Map New forecast layout! Learn more

10-Day Weather Forecast

Advertisements
Track Severe Weather on mobile